Time;durP1;ratioP1;P1;durP2;ratioP2;P2;SDS_P1;SDS_P2;PMS_P1;PMS_P2;Temp;Humidity;BMP_temperature;BMP_pressure;BME280_temperature;BME280_humidity;BME280_pressure;Samples;Min_cycle;Max_cycle;Signal;HPM_P1;HPM_P2
2023/02/05 00:00:25;;;;;;;8.23;4.80;;;4.60;99.90;;;;;;5069190;28;20211;-57
2023/02/05 00:02:53;;;;;;;8.60;4.83;;;4.50;99.90;;;;;;5067990;28;20607;-57
2023/02/05 00:05:19;;;;;;;7.37;4.87;;;4.50;99.90;;;;;;5070287;28;20287;-58
2023/02/05 00:07:46;;;;;;;7.23;4.87;;;4.50;99.90;;;;;;5069726;28;20605;-58
2023/02/05 00:10:13;;;;;;;7.57;5.10;;;4.50;99.90;;;;;;5070116;28;20217;-61
2023/02/05 00:12:39;;;;;;;7.17;4.40;;;4.50;99.90;;;;;;5069807;28;20221;-58
2023/02/05 00:15:07;;;;;;;10.17;4.37;;;4.60;99.90;;;;;;5068155;28;20331;-60
2023/02/05 00:17:35;;;;;;;9.03;4.47;;;4.60;99.90;;;;;;5069848;28;20200;-59
2023/02/05 00:20:03;;;;;;;7.73;4.03;;;4.70;99.90;;;;;;5069835;28;20211;-59
2023/02/05 00:22:29;;;;;;;8.27;4.60;;;4.60;99.90;;;;;;5069631;28;20228;-59
2023/02/05 00:24:56;;;;;;;8.67;4.80;;;4.40;99.90;;;;;;5072975;28;20220;-59
2023/02/05 00:27:23;;;;;;;5.63;4.27;;;4.30;99.90;;;;;;5076140;28;20205;-60
2023/02/05 00:29:50;;;;;;;7.13;4.07;;;4.20;99.90;;;;;;5076567;28;20215;-59
2023/02/05 00:32:16;;;;;;;6.63;4.10;;;4.20;99.90;;;;;;5076368;28;20732;-59
2023/02/05 00:34:43;;;;;;;6.73;4.07;;;4.40;99.90;;;;;;5076172;28;20207;-60
2023/02/05 00:37:11;;;;;;;6.80;4.00;;;4.50;99.90;;;;;;5075962;28;20532;-58
2023/02/05 00:39:38;;;;;;;6.33;3.87;;;4.40;99.90;;;;;;5075748;28;20209;-59
2023/02/05 00:42:05;;;;;;;5.57;4.07;;;4.50;99.90;;;;;;5076283;28;20228;-59
2023/02/05 00:44:31;;;;;;;6.17;4.20;;;4.50;99.90;;;;;;5076085;28;20594;-59
2023/02/05 00:46:58;;;;;;;6.20;3.60;;;4.60;99.90;;;;;;5076518;28;20204;-59
2023/02/05 00:49:25;;;;;;;7.87;3.90;;;4.70;99.90;;;;;;5076214;28;20208;-59
2023/02/05 00:51:52;;;;;;;4.67;3.80;;;4.70;99.90;;;;;;5075931;28;20232;-59
2023/02/05 00:54:20;;;;;;;5.27;4.20;;;4.60;99.90;;;;;;5076128;28;20660;-59
2023/02/05 00:56:47;;;;;;;5.60;3.60;;;4.50;99.90;;;;;;5076038;28;20209;-59
2023/02/05 00:59:13;;;;;;;5.67;3.57;;;4.50;99.90;;;;;;5075999;28;20209;-59
2023/02/05 01:01:40;;;;;;;6.07;3.67;;;4.50;99.90;;;;;;5075751;28;20220;-59
2023/02/05 01:04:07;;;;;;;5.83;4.03;;;4.50;99.90;;;;;;5075790;28;20213;-59
2023/02/05 01:06:33;;;;;;;4.30;3.53;;;4.50;99.90;;;;;;5076301;28;20205;-58
2023/02/05 01:09:00;;;;;;;8.10;3.60;;;4.50;99.90;;;;;;5075750;28;20695;-59
2023/02/05 01:11:28;;;;;;;4.70;3.63;;;4.50;99.90;;;;;;5075939;28;20205;-59
2023/02/05 01:13:55;;;;;;;8.53;4.20;;;4.60;99.90;;;;;;5075739;28;20233;-59
2023/02/05 01:16:22;;;;;;;5.20;3.60;;;4.50;99.90;;;;;;5075618;28;20211;-58
2023/02/05 01:18:48;;;;;;;6.13;4.27;;;4.50;99.90;;;;;;5075509;28;20640;-60
2023/02/05 01:21:15;;;;;;;7.50;4.10;;;4.60;99.90;;;;;;5075976;28;20217;-59
2023/02/05 01:23:42;;;;;;;7.43;4.03;;;4.70;99.90;;;;;;5075733;28;20601;-58
2023/02/05 01:26:08;;;;;;;5.03;4.10;;;4.80;99.90;;;;;;5075709;28;20626;-60
2023/02/05 01:28:36;;;;;;;4.73;3.50;;;4.80;99.90;;;;;;5074744;28;20258;-61
2023/02/05 01:31:03;;;;;;;5.57;3.70;;;5.00;99.90;;;;;;5075424;28;20215;-59
2023/02/05 01:33:30;;;;;;;6.10;3.90;;;4.90;99.90;;;;;;5074859;28;20233;-59
2023/02/05 01:35:56;;;;;;;5.93;3.83;;;5.00;99.90;;;;;;5072320;28;20205;-61
2023/02/05 01:38:23;;;;;;;5.73;3.90;;;5.00;99.90;;;;;;5073505;28;20283;-57
2023/02/05 01:40:50;;;;;;;4.70;3.43;;;5.00;99.90;;;;;;5073625;28;20571;-56
2023/02/05 01:43:18;;;;;;;5.47;3.80;;;5.10;99.90;;;;;;5073292;28;20232;-57
2023/02/05 01:46:13;;;;;;;6.20;3.73;;;5.00;99.90;;;;;;5073428;28;20220;-56
2023/02/05 01:48:43;;;;;;;6.13;4.17;;;4.90;99.90;;;;;;5073559;28;20201;-56
2023/02/05 01:51:14;;;;;;;7.03;3.70;;;4.90;99.90;;;;;;5073139;28;20282;-57
2023/02/05 01:53:41;;;;;;;8.03;4.27;;;4.90;99.90;;;;;;5073219;28;20645;-56
2023/02/05 01:56:10;;;;;;;5.57;3.60;;;4.90;99.90;;;;;;5073063;28;20205;-56
2023/02/05 01:58:42;;;;;;;6.80;3.93;;;4.90;99.90;;;;;;5073386;28;20487;-56
2023/02/05 02:01:10;;;;;;;6.50;3.57;;;5.00;99.90;;;;;;5073097;28;20216;-55
2023/02/05 02:03:38;;;;;;;4.13;3.27;;;5.00;99.90;;;;;;5072787;28;20224;-57
2023/02/05 02:06:04;;;;;;;7.43;4.33;;;5.00;99.90;;;;;;5072659;28;20641;-57
2023/02/05 02:08:32;;;;;;;5.93;3.80;;;4.90;99.90;;;;;;5072702;28;20205;-56
2023/02/05 02:11:02;;;;;;;4.53;3.17;;;5.00;99.90;;;;;;5073264;28;20201;-56
2023/02/05 02:13:31;;;;;;;5.10;3.50;;;5.00;99.90;;;;;;5072876;28;20318;-56
2023/02/05 02:15:58;;;;;;;6.67;3.77;;;5.00;99.90;;;;;;5073130;28;20561;-55
2023/02/05 02:18:27;;;;;;;5.60;3.63;;;4.90;99.90;;;;;;5073036;28;20216;-57
2023/02/05 02:21:27;;;;;;;4.73;3.37;;;4.80;99.90;;;;;;5073042;28;20204;-56
2023/02/05 02:24:20;;;;;;;5.07;3.40;;;4.60;99.90;;;;;;5072597;28;20235;-56
2023/02/05 02:27:11;;;;;;;4.37;3.33;;;4.50;99.90;;;;;;5072481;28;20232;-56
2023/02/05 02:29:46;;;;;;;5.57;3.67;;;4.40;99.90;;;;;;5072658;28;20208;-55
2023/02/05 02:32:18;;;;;;;5.53;3.00;;;4.40;99.90;;;;;;5072792;28;20618;-56
2023/02/05 02:34:48;;;;;;;5.07;3.30;;;4.30;99.90;;;;;;5072332;28;20213;-55
2023/02/05 02:37:22;;;;;;;4.27;3.33;;;4.10;99.90;;;;;;5072464;28;20278;-55
2023/02/05 02:39:56;;;;;;;4.63;3.33;;;4.00;99.90;;;;;;5072350;28;20227;-55
2023/02/05 02:42:29;;;;;;;6.47;3.43;;;3.90;99.90;;;;;;5072411;28;20254;-56
2023/02/05 02:45:00;;;;;;;4.73;3.30;;;3.80;99.90;;;;;;5072209;28;20213;-55
2023/02/05 02:47:31;;;;;;;6.07;3.50;;;3.80;99.90;;;;;;5071963;28;20681;-56
2023/02/05 02:50:02;;;;;;;9.83;6.13;;;3.80;99.90;;;;;;5072106;28;20735;-56
2023/02/05 02:52:33;;;;;;;5.23;3.60;;;3.90;99.90;;;;;;5072058;28;20246;-55
2023/02/05 02:55:04;;;;;;;5.93;3.53;;;3.80;99.90;;;;;;5072330;28;20204;-56
2023/02/05 02:57:33;;;;;;;4.73;3.10;;;3.70;99.90;;;;;;5072249;28;20209;-56
2023/02/05 03:00:05;;;;;;;4.37;3.07;;;3.80;99.90;;;;;;5071993;28;20672;-56
2023/02/05 03:02:36;;;;;;;4.53;2.90;;;3.80;99.90;;;;;;5071773;28;20688;-56
2023/02/05 03:05:07;;;;;;;4.63;2.97;;;3.80;99.90;;;;;;5071668;28;20254;-56
2023/02/05 03:07:38;;;;;;;6.23;3.17;;;3.90;99.90;;;;;;5071950;28;20312;-55
2023/02/05 03:10:11;;;;;;;3.73;3.00;;;3.80;99.90;;;;;;5071830;28;20254;-55
2023/02/05 03:12:38;;;;;;;5.10;3.60;;;3.80;99.90;;;;;;5071787;28;20233;-55
2023/02/05 03:15:08;;;;;;;3.93;3.10;;;3.80;99.90;;;;;;5071599;28;20300;-55
2023/02/05 03:17:36;;;;;;;5.57;3.57;;;3.80;99.90;;;;;;5071602;28;20279;-55
2023/02/05 03:20:11;;;;;;;4.17;2.83;;;3.80;99.90;;;;;;5071851;28;20204;-55
2023/02/05 03:22:38;;;;;;;4.63;3.03;;;3.70;99.90;;;;;;5071504;28;20255;-55
2023/02/05 03:25:06;;;;;;;5.50;2.87;;;3.70;99.90;;;;;;5071171;28;20266;-56
2023/02/05 03:27:33;;;;;;;4.27;2.90;;;3.80;99.90;;;;;;5071234;28;20205;-55
2023/02/05 03:30:00;;;;;;;5.87;3.57;;;3.80;99.90;;;;;;5071012;28;20274;-56
2023/02/05 03:32:39;;;;;;;4.83;3.27;;;3.80;99.90;;;;;;5071314;28;20241;-56
2023/02/05 03:35:22;;;;;;;4.00;3.23;;;3.80;99.90;;;;;;5071253;28;20637;-54
2023/02/05 03:38:00;;;;;;;4.40;2.90;;;3.90;99.90;;;;;;5071207;28;20215;-55
2023/02/05 03:40:34;;;;;;;5.93;3.90;;;3.90;99.90;;;;;;5071095;28;20238;-56
2023/02/05 03:43:15;;;;;;;3.97;3.00;;;3.80;99.90;;;;;;5071013;28;20231;-56
2023/02/05 03:45:48;;;;;;;6.10;3.07;;;3.80;99.90;;;;;;5071198;28;20208;-56
2023/02/05 03:48:26;;;;;;;5.97;3.43;;;3.60;99.90;;;;;;5070965;28;20236;-56
2023/02/05 03:50:59;;;;;;;4.67;2.90;;;3.60;99.90;;;;;;5070865;28;20203;-55
2023/02/05 03:53:30;;;;;;;4.63;3.10;;;3.40;99.90;;;;;;5070788;28;20677;-56
2023/02/05 03:56:04;;;;;;;5.60;3.43;;;3.40;99.90;;;;;;5071110;28;20213;-55
2023/02/05 03:58:35;;;;;;;4.33;2.97;;;3.20;99.90;;;;;;5070950;28;20238;-55
2023/02/05 04:01:03;;;;;;;5.03;3.13;;;3.10;99.90;;;;;;5070659;28;20201;-56
2023/02/05 04:03:31;;;;;;;5.57;3.20;;;3.10;99.90;;;;;;5070523;28;20629;-55
2023/02/05 04:05:57;;;;;;;4.93;2.97;;;2.90;99.90;;;;;;5070826;28;20261;-55
2023/02/05 04:08:24;;;;;;;4.97;2.90;;;2.70;99.90;;;;;;5070997;28;20251;-56
2023/02/05 04:10:51;;;;;;;4.27;2.90;;;2.60;99.90;;;;;;5070948;28;20235;-55
2023/02/05 04:13:18;;;;;;;4.13;3.10;;;2.50;99.90;;;;;;5070497;28;20231;-55
2023/02/05 04:15:44;;;;;;;3.63;3.03;;;2.40;99.90;;;;;;5070793;28;20617;-55
2023/02/05 04:18:11;;;;;;;4.33;2.97;;;2.40;99.90;;;;;;5070937;28;20208;-55
2023/02/05 04:20:39;;;;;;;5.37;3.27;;;2.20;99.90;;;;;;5070913;28;20212;-55
2023/02/05 04:23:06;;;;;;;5.20;3.60;;;2.20;99.90;;;;;;5070591;28;20328;-56
2023/02/05 04:25:32;;;;;;;3.80;3.17;;;2.10;99.90;;;;;;5070620;28;20208;-56
2023/02/05 04:27:59;;;;;;;5.93;3.10;;;2.00;99.90;;;;;;5070616;28;20232;-56
2023/02/05 04:30:26;;;;;;;3.43;3.13;;;2.00;99.90;;;;;;5070603;28;20208;-56
2023/02/05 04:32:52;;;;;;;6.33;3.17;;;2.00;99.90;;;;;;5070538;28;20228;-56
2023/02/05 04:35:19;;;;;;;7.20;3.40;;;2.00;99.90;;;;;;5070602;28;20213;-55
2023/02/05 04:37:47;;;;;;;4.30;3.40;;;2.10;99.90;;;;;;5070782;28;20255;-55
2023/02/05 04:40:14;;;;;;;5.80;3.60;;;2.30;99.90;;;;;;5070695;28;20204;-55
2023/02/05 04:42:41;;;;;;;6.07;3.70;;;2.60;99.90;;;;;;5070343;28;20708;-55
2023/02/05 04:45:08;;;;;;;7.87;3.60;;;2.80;99.90;;;;;;5070243;28;20254;-55
2023/02/05 04:47:35;;;;;;;5.57;3.40;;;3.00;99.90;;;;;;5070684;28;20212;-55
2023/02/05 04:50:02;;;;;;;6.13;3.57;;;3.10;99.90;;;;;;5070608;28;20302;-56
2023/02/05 04:52:29;;;;;;;5.70;3.40;;;3.20;99.90;;;;;;5070486;28;20274;-55
2023/02/05 04:54:57;;;;;;;5.80;3.43;;;3.20;99.90;;;;;;5070412;28;20233;-57
2023/02/05 04:57:24;;;;;;;5.77;3.70;;;3.10;99.90;;;;;;5070395;28;20676;-55
2023/02/05 04:59:50;;;;;;;6.03;3.53;;;3.00;99.90;;;;;;5070785;28;20277;-55
2023/02/05 05:02:17;;;;;;;5.23;3.30;;;2.90;99.90;;;;;;5070422;28;20228;-56
2023/02/05 05:04:44;;;;;;;4.60;2.97;;;2.70;99.90;;;;;;5070485;28;20233;-57
2023/02/05 05:07:11;;;;;;;9.67;3.40;;;2.60;99.90;;;;;;5070449;28;20296;-56
2023/02/05 05:09:37;;;;;;;5.13;3.30;;;2.60;99.90;;;;;;5070382;28;20205;-55
2023/02/05 05:12:06;;;;;;;5.63;3.13;;;2.60;99.90;;;;;;5072070;28;20290;-54
2023/02/05 05:14:32;;;;;;;7.27;3.77;;;2.50;99.90;;;;;;5073820;28;20691;-55
2023/02/05 05:16:59;;;;;;;5.87;3.33;;;2.80;99.90;;;;;;5074130;28;20580;-54
2023/02/05 05:19:26;;;;;;;7.23;3.77;;;2.50;99.90;;;;;;5074159;28;20211;-56
2023/02/05 05:21:53;;;;;;;6.43;3.63;;;2.70;99.90;;;;;;5074627;28;20274;-55
2023/02/05 05:24:19;;;;;;;4.90;3.33;;;2.90;99.90;;;;;;5073672;28;20312;-55
2023/02/05 05:26:46;;;;;;;5.43;3.60;;;3.00;99.90;;;;;;5073741;28;20216;-55
2023/02/05 05:29:14;;;;;;;5.90;3.50;;;3.10;99.90;;;;;;5073717;28;20211;-55
2023/02/05 05:31:42;;;;;;;5.73;3.63;;;3.20;99.90;;;;;;5073478;28;20208;-55
2023/02/05 05:34:08;;;;;;;7.67;3.97;;;3.30;99.90;;;;;;5073286;28;20653;-55
2023/02/05 05:36:35;;;;;;;4.93;3.70;;;3.30;99.90;;;;;;5073368;28;20227;-55
2023/02/05 05:44:28;;;;;;;5.00;3.73;;;3.70;99.90;;;;;;5072807;28;20667;-56
2023/02/05 05:46:55;;;;;;;6.03;3.93;;;3.80;99.90;;;;;;5073209;28;20208;-56
2023/02/05 05:49:21;;;;;;;5.10;3.73;;;3.90;99.90;;;;;;5073128;28;20267;-57
2023/02/05 05:51:48;;;;;;;5.47;3.90;;;4.00;99.90;;;;;;5072858;28;20233;-55
2023/02/05 05:54:15;;;;;;;7.20;4.20;;;4.10;99.90;;;;;;5073164;28;20233;-56
2023/02/05 05:56:42;;;;;;;6.97;3.80;;;4.10;99.90;;;;;;5073302;28;20209;-55
2023/02/05 05:59:08;;;;;;;3.80;3.33;;;4.10;99.90;;;;;;5073213;28;20308;-56
2023/02/05 06:01:36;;;;;;;5.47;3.90;;;4.10;99.90;;;;;;5072950;28;20216;-55
2023/02/05 06:04:03;;;;;;;7.37;4.03;;;4.20;99.90;;;;;;5072795;28;20220;-56
2023/02/05 06:06:30;;;;;;;7.27;4.03;;;4.30;99.90;;;;;;5073271;28;20205;-55
2023/02/05 06:08:56;;;;;;;8.53;4.23;;;4.50;99.90;;;;;;5073161;28;20560;-55
2023/02/05 06:11:23;;;;;;;8.00;4.20;;;4.50;99.90;;;;;;5072978;28;20308;-55
2023/02/05 06:13:50;;;;;;;6.70;3.90;;;4.60;99.90;;;;;;5072658;28;20220;-56
2023/02/05 06:16:16;;;;;;;5.73;3.93;;;4.70;99.90;;;;;;5072834;28;20212;-55
2023/02/05 06:18:44;;;;;;;4.97;4.00;;;4.70;99.90;;;;;;5072571;28;20649;-56
2023/02/05 06:21:11;;;;;;;9.90;4.00;;;4.70;99.90;;;;;;5072842;28;20205;-55
2023/02/05 06:23:38;;;;;;;6.60;3.77;;;4.70;99.90;;;;;;5072035;28;20233;-57
2023/02/05 06:26:05;;;;;;;6.80;3.63;;;4.70;99.90;;;;;;5072642;28;20208;-56
2023/02/05 06:28:31;;;;;;;7.97;3.80;;;4.70;99.90;;;;;;5072588;28;20208;-55
2023/02/05 06:30:58;;;;;;;7.07;4.17;;;4.80;99.90;;;;;;5072805;28;20213;-55
2023/02/05 06:33:25;;;;;;;5.63;3.83;;;4.80;99.90;;;;;;5072149;28;20251;-55
2023/02/05 06:35:53;;;;;;;7.23;4.10;;;4.80;99.90;;;;;;5072811;28;20205;-55
2023/02/05 06:38:19;;;;;;;5.53;4.10;;;4.80;99.90;;;;;;5072776;28;20629;-56
2023/02/05 06:40:47;;;;;;;8.80;3.80;;;4.90;99.90;;;;;;5072550;28;20208;-57
2023/02/05 06:43:14;;;;;;;12.50;4.40;;;5.00;99.90;;;;;;5071961;28;20255;-56
2023/02/05 06:45:40;;;;;;;7.43;4.80;;;5.00;99.90;;;;;;5072321;28;20216;-55
2023/02/05 06:48:07;;;;;;;7.57;4.20;;;5.00;99.90;;;;;;5072211;28;20262;-56
2023/02/05 06:50:34;;;;;;;7.67;4.23;;;5.00;99.90;;;;;;5072212;28;20201;-57
2023/02/05 06:53:02;;;;;;;5.90;3.93;;;5.00;99.90;;;;;;5072037;28;20363;-56
2023/02/05 06:55:29;;;;;;;7.00;4.37;;;5.10;99.90;;;;;;5071907;28;20228;-56
2023/02/05 06:57:55;;;;;;;8.77;3.97;;;5.20;99.90;;;;;;5072030;28;20217;-56
2023/02/05 07:00:22;;;;;;;7.80;4.23;;;5.20;99.90;;;;;;5072030;28;20205;-56
2023/02/05 07:02:49;;;;;;;5.63;3.87;;;5.30;99.90;;;;;;5071881;28;20244;-56
2023/02/05 07:05:16;;;;;;;6.90;4.00;;;5.30;99.90;;;;;;5072093;28;20201;-56
2023/02/05 07:07:42;;;;;;;7.77;3.90;;;5.40;99.90;;;;;;5071916;28;20205;-56
2023/02/05 07:10:11;;;;;;;10.77;4.30;;;5.40;99.90;;;;;;5071871;28;20573;-57
2023/02/05 07:12:37;;;;;;;7.77;4.43;;;5.40;99.90;;;;;;5071646;28;20270;-57
2023/02/05 07:15:04;;;;;;;7.87;4.20;;;5.30;99.90;;;;;;5071322;28;20247;-56
2023/02/05 07:17:31;;;;;;;9.30;4.40;;;5.40;99.90;;;;;;5071981;28;20584;-56
2023/02/05 07:19:58;;;;;;;10.27;4.20;;;5.60;99.90;;;;;;5071782;28;20270;-54
2023/02/05 07:22:25;;;;;;;7.57;4.00;;;5.40;99.90;;;;;;5071676;28;20260;-55
2023/02/05 07:24:51;;;;;;;7.17;4.37;;;5.30;99.90;;;;;;5071813;28;20239;-53
2023/02/05 07:27:19;;;;;;;6.00;4.03;;;5.20;99.90;;;;;;5071757;28;20221;-54
2023/02/05 07:29:46;;;;;;;7.00;4.33;;;5.40;99.90;;;;;;5072095;28;20200;-54
2023/02/05 07:32:13;;;;;;;7.30;3.83;;;5.40;99.90;;;;;;5072116;28;20617;-54
2023/02/05 07:34:39;;;;;;;8.03;4.10;;;5.30;99.90;;;;;;5071409;28;20715;-53
2023/02/05 07:37:06;;;;;;;5.87;3.97;;;5.20;99.90;;;;;;5072667;28;20205;-53
2023/02/05 07:39:33;;;;;;;5.60;4.00;;;5.30;99.90;;;;;;5072377;28;20205;-55
2023/02/05 07:42:00;;;;;;;7.83;4.40;;;5.20;99.90;;;;;;5073038;28;20232;-53
2023/02/05 07:44:28;;;;;;;6.43;3.97;;;5.20;99.90;;;;;;5072664;28;20263;-54
2023/02/05 07:46:55;;;;;;;7.63;4.27;;;5.20;99.90;;;;;;5072660;28;20212;-53
2023/02/05 07:49:22;;;;;;;11.73;4.37;;;5.20;99.90;;;;;;5071937;28;20562;-53
2023/02/05 07:51:49;;;;;;;8.70;4.50;;;5.10;99.90;;;;;;5071919;28;20708;-54
2023/02/05 07:54:16;;;;;;;7.27;4.03;;;5.30;99.90;;;;;;5071404;28;20201;-54
2023/02/05 07:56:42;;;;;;;10.20;3.90;;;5.30;99.90;;;;;;5071489;28;20201;-54
2023/02/05 07:59:09;;;;;;;8.30;3.97;;;5.20;99.90;;;;;;5071427;28;20675;-54
2023/02/05 08:01:37;;;;;;;5.67;3.67;;;5.20;99.90;;;;;;5071639;28;20666;-54
2023/02/05 08:04:04;;;;;;;8.10;4.20;;;5.20;99.90;;;;;;5071164;28;20224;-53
2023/02/05 08:06:32;;;;;;;9.00;4.37;;;5.30;99.90;;;;;;5071377;28;20213;-54
2023/02/05 08:08:59;;;;;;;8.40;5.10;;;5.40;99.90;;;;;;5071781;28;20672;-53
2023/02/05 08:11:26;;;;;;;9.07;5.00;;;5.40;99.90;;;;;;5072754;28;20333;-54
2023/02/05 08:13:52;;;;;;;12.70;4.73;;;5.40;99.90;;;;;;5072678;28;20278;-53
2023/02/05 08:16:19;;;;;;;8.43;5.00;;;5.40;99.90;;;;;;5072576;28;20557;-54
2023/02/05 08:18:50;;;;;;;9.43;5.73;;;5.30;99.90;;;;;;5071904;28;20292;-54
2023/02/05 08:21:17;;;;;;;8.83;4.80;;;5.40;99.90;;;;;;5071743;28;20668;-54
2023/02/05 08:23:44;;;;;;;8.97;4.77;;;5.40;99.90;;;;;;5071599;28;20251;-54
2023/02/05 08:26:10;;;;;;;7.63;4.27;;;5.60;99.90;;;;;;5071800;28;20254;-54
2023/02/05 08:28:37;;;;;;;12.47;5.50;;;5.70;99.90;;;;;;5072129;28;20200;-54
2023/02/05 08:31:09;;;;;;;8.70;4.43;;;5.80;99.90;;;;;;5071457;28;20204;-56
2023/02/05 08:33:36;;;;;;;8.93;4.53;;;5.90;99.90;;;;;;5103157;22;20240;-62
2023/02/05 08:36:05;;;;;;;8.53;5.33;;;5.90;99.90;;;;;;5079098;28;20208;-62
2023/02/05 08:38:32;;;;;;;12.90;5.30;;;6.00;99.90;;;;;;5071134;28;20276;-65
2023/02/05 08:40:58;;;;;;;9.53;4.63;;;6.10;99.90;;;;;;5071821;28;20212;-66
2023/02/05 08:43:25;;;;;;;9.97;4.20;;;5.90;99.90;;;;;;5073853;28;20224;-64
2023/02/05 08:45:52;;;;;;;5.83;3.87;;;5.80;99.90;;;;;;5080658;28;20205;-66
2023/02/05 08:48:19;;;;;;;8.60;4.13;;;5.70;99.90;;;;;;5087148;28;20215;-67
2023/02/05 08:50:46;;;;;;;12.97;4.70;;;5.70;99.90;;;;;;5087275;28;20239;-67
2023/02/05 08:53:15;;;;;;;7.17;4.20;;;5.70;99.90;;;;;;5086416;28;20227;-66
2023/02/05 08:55:41;;;;;;;8.60;4.10;;;5.50;99.90;;;;;;5080927;28;20241;-65
2023/02/05 08:58:08;;;;;;;7.67;4.80;;;5.40;99.90;;;;;;5076434;28;20204;-67
2023/02/05 09:00:36;;;;;;;7.33;3.90;;;5.30;99.90;;;;;;5075849;28;20204;-64
2023/02/05 09:03:05;;;;;;;6.83;4.33;;;5.40;99.90;;;;;;5075935;28;20229;-66
2023/02/05 09:05:32;;;;;;;7.20;4.03;;;5.50;99.90;;;;;;5074973;28;20223;-65
2023/02/05 09:07:59;;;;;;;11.40;4.93;;;5.50;99.90;;;;;;5081155;28;20207;-66
2023/02/05 09:10:27;;;;;;;9.47;4.43;;;5.60;99.90;;;;;;5095436;28;20204;-66
2023/02/05 09:12:53;;;;;;;8.60;4.40;;;5.70;99.90;;;;;;5094733;28;20221;-66
2023/02/05 09:15:20;;;;;;;7.80;4.47;;;5.90;99.90;;;;;;5094328;28;20200;-66
2023/02/05 09:17:50;;;;;;;7.93;4.47;;;6.10;99.90;;;;;;5094496;28;20250;-67
2023/02/05 09:20:17;;;;;;;9.20;4.40;;;6.20;99.90;;;;;;5094887;28;20219;-66
2023/02/05 09:22:44;;;;;;;6.03;4.33;;;6.30;99.90;;;;;;5093979;28;20695;-65
2023/02/05 09:25:11;;;;;;;6.27;4.10;;;6.40;99.90;;;;;;5094124;28;20281;-66
2023/02/05 09:27:39;;;;;;;7.17;4.60;;;6.60;99.90;;;;;;5093909;28;20205;-67
2023/02/05 09:30:06;;;;;;;7.40;4.50;;;6.70;99.90;;;;;;5094128;28;20210;-65
2023/02/05 09:32:33;;;;;;;13.80;6.83;;;6.80;99.90;;;;;;5093229;28;20232;-65
2023/02/05 09:35:00;;;;;;;14.33;9.60;;;6.90;99.90;;;;;;5093436;28;20207;-66
2023/02/05 09:37:26;;;;;;;14.90;5.70;;;7.00;99.90;;;;;;5093635;28;20303;-65
2023/02/05 09:39:53;;;;;;;11.63;6.17;;;7.10;99.90;;;;;;5093857;28;20205;-65
2023/02/05 09:42:28;;;;;;;12.53;6.67;;;7.20;99.90;;;;;;5093683;28;20224;-66
2023/02/05 09:45:14;;;;;;;11.47;5.73;;;7.30;99.90;;;;;;5093607;28;20306;-67
2023/02/05 09:47:46;;;;;;;9.67;5.87;;;7.40;99.90;;;;;;5093209;28;20208;-66
2023/02/05 09:50:20;;;;;;;11.77;6.23;;;7.40;99.90;;;;;;5093355;28;20277;-66
2023/02/05 09:52:50;;;;;;;8.90;5.50;;;7.40;99.90;;;;;;5093399;28;20220;-67
2023/02/05 09:55:20;;;;;;;10.70;5.57;;;7.50;99.90;;;;;;5093271;28;20200;-67
2023/02/05 09:57:47;;;;;;;10.17;6.43;;;7.50;99.90;;;;;;5092387;28;20204;-67
2023/02/05 10:00:23;;;;;;;10.00;5.50;;;7.60;99.90;;;;;;5093335;28;20208;-66
2023/02/05 10:02:55;;;;;;;11.13;5.57;;;7.60;99.90;;;;;;5093061;28;20231;-65
2023/02/05 10:05:24;;;;;;;10.33;5.50;;;7.60;99.90;;;;;;5093031;28;20236;-67
2023/02/05 10:07:59;;;;;;;8.53;5.10;;;7.50;99.90;;;;;;5092938;28;20207;-66
2023/02/05 10:10:28;;;;;;;85.83;63.43;;;7.40;99.90;;;;;;5093158;28;20184;-67
2023/02/05 10:13:25;;;;;;;11.00;6.37;;;7.30;99.90;;;;;;5092621;28;20231;-66
2023/02/05 10:16:24;;;;;;;8.63;5.40;;;7.30;99.90;;;;;;5093141;28;20204;-67
2023/02/05 10:19:14;;;;;;;11.87;7.27;;;7.40;99.90;;;;;;5039208;28;20724;-66
2023/02/05 10:21:57;;;;;;;8.73;5.63;;;7.50;99.90;;;;;;5093175;28;20232;-66
2023/02/05 10:24:40;;;;;;;10.13;5.83;;;7.50;99.90;;;;;;5092386;28;20223;-66
2023/02/05 10:27:17;;;;;;;10.73;5.30;;;7.50;99.90;;;;;;5093041;28;20208;-67
2023/02/05 10:29:50;;;;;;;14.10;6.20;;;7.30;99.90;;;;;;5092959;28;20287;-66
2023/02/05 10:32:22;;;;;;;10.57;5.47;;;7.30;99.90;;;;;;5092675;28;20236;-67
2023/02/05 10:35:00;;;;;;;10.53;5.67;;;7.30;99.90;;;;;;5092439;28;20246;-67
2023/02/05 10:37:35;;;;;;;16.07;6.27;;;7.30;99.90;;;;;;5092538;28;20212;-66
2023/02/05 10:40:03;;;;;;;10.70;4.97;;;7.40;99.90;;;;;;5092555;28;20208;-66
2023/02/05 10:42:36;;;;;;;9.70;5.37;;;7.40;99.90;;;;;;5091885;28;20228;-64
2023/02/05 10:45:13;;;;;;;12.27;5.87;;;7.40;99.90;;;;;;5091854;28;20228;-63
2023/02/05 10:48:02;;;;;;;13.70;5.87;;;7.50;99.90;;;;;;5092371;28;20208;-65
2023/02/05 10:50:36;;;;;;;9.57;6.73;;;7.50;99.90;;;;;;5092649;28;20212;-66
2023/02/05 10:53:03;;;;;;;11.17;6.50;;;7.60;99.90;;;;;;5082134;28;20371;-68
2023/02/05 10:55:30;;;;;;;10.70;6.10;;;7.60;99.90;;;;;;5074934;28;20580;-65
2023/02/05 10:57:57;;;;;;;11.00;5.57;;;7.60;99.90;;;;;;5074303;28;20556;-62
2023/02/05 11:00:24;;;;;;;12.90;5.80;;;7.50;99.90;;;;;;5074056;28;20220;-63
2023/02/05 11:02:55;;;;;;;15.50;5.73;;;7.40;99.90;;;;;;5073057;28;20232;-63
2023/02/05 11:05:26;;;;;;;10.97;5.67;;;7.50;99.90;;;;;;5072899;28;20229;-62
2023/02/05 11:07:54;;;;;;;12.77;5.50;;;7.50;99.90;;;;;;5073166;28;20205;-63
2023/02/05 11:10:23;;;;;;;10.93;5.90;;;7.60;99.90;;;;;;5071770;28;20209;-63
2023/02/05 11:12:53;;;;;;;11.87;6.23;;;7.70;99.90;;;;;;5071765;28;20263;-63
2023/02/05 11:15:25;;;;;;;15.67;5.83;;;7.70;99.90;;;;;;5071377;28;20201;-63
2023/02/05 11:17:56;;;;;;;13.87;6.50;;;7.70;99.90;;;;;;5071779;28;20201;-67
2023/02/05 11:20:28;;;;;;;10.00;5.33;;;7.70;99.90;;;;;;5072149;28;20295;-65
2023/02/05 11:23:15;;;;;;;15.40;7.70;;;7.70;99.90;;;;;;5073037;28;20284;-64
2023/02/05 11:25:50;;;;;;;9.57;5.37;;;7.70;99.90;;;;;;5071656;28;20541;-63
2023/02/05 11:28:26;;;;;;;9.27;4.77;;;7.80;99.90;;;;;;5072062;28;20208;-64
2023/02/05 11:30:53;;;;;;;12.13;5.33;;;7.80;99.90;;;;;;5073237;28;20216;-66
2023/02/05 11:33:30;;;;;;;11.23;4.90;;;7.90;99.90;;;;;;5071143;28;20245;-68
2023/02/05 11:35:59;;;;;;;10.47;4.90;;;7.90;99.90;;;;;;5070805;28;20687;-68
2023/02/05 11:38:31;;;;;;;9.97;5.37;;;7.90;99.90;;;;;;5070987;28;20440;-69
2023/02/05 11:40:59;;;;;;;8.53;4.60;;;8.00;99.90;;;;;;5071136;28;20212;-67
2023/02/05 11:43:30;;;;;;;9.63;4.93;;;8.00;99.90;;;;;;5070643;28;20224;-64
2023/02/05 11:45:58;;;;;;;6.83;4.37;;;8.10;99.90;;;;;;5069660;28;20232;-68
2023/02/05 11:48:37;;;;;;;11.40;5.20;;;8.10;99.90;;;;;;5070950;28;20268;-69
2023/02/05 11:51:06;;;;;;;8.80;4.50;;;8.20;99.90;;;;;;5070894;28;20208;-67
2023/02/05 11:53:34;;;;;;;8.70;4.83;;;8.30;99.90;;;;;;5070915;28;20236;-66
2023/02/05 11:56:03;;;;;;;12.73;5.10;;;8.50;99.90;;;;;;5069396;28;20498;-70
2023/02/05 11:58:32;;;;;;;9.23;4.93;;;8.40;99.90;;;;;;5070757;28;20213;-65
2023/02/05 12:01:01;;;;;;;10.63;5.50;;;8.40;99.90;;;;;;5071073;28;20209;-68
2023/02/05 12:03:31;;;;;;;10.90;5.93;;;8.50;99.90;;;;;;5070878;28;20419;-68
2023/02/05 12:06:05;;;;;;;18.00;12.20;;;8.60;99.90;;;;;;5070644;28;20772;-62
2023/02/05 12:08:38;;;;;;;9.30;5.30;;;8.80;99.90;;;;;;5070851;28;20618;-67
2023/02/05 12:11:30;;;;;;;16.60;8.30;;;8.90;99.90;;;;;;5071363;28;20208;-67
2023/02/05 12:14:06;;;;;;;11.33;6.10;;;9.00;99.90;;;;;;5063155;28;20233;-66
2023/02/05 12:16:48;;;;;;;9.30;6.53;;;9.00;99.90;;;;;;5069054;28;20215;-65
2023/02/05 12:19:19;;;;;;;14.43;5.97;;;9.00;99.90;;;;;;5069586;28;20588;-67
2023/02/05 12:21:50;;;;;;;9.00;4.90;;;8.90;99.90;;;;;;5071141;28;20205;-68
2023/02/05 12:24:46;;;;;;;12.33;5.33;;;8.90;99.90;;;;;;5071570;28;20205;-66
2023/02/05 12:27:23;;;;;;;11.33;5.33;;;8.90;99.90;;;;;;5071517;28;20264;-66
2023/02/05 12:30:02;;;;;;;15.33;8.53;;;8.80;99.90;;;;;;5064502;28;20213;-65
2023/02/05 12:32:37;;;;;;;11.00;5.80;;;8.80;99.90;;;;;;5069524;28;20255;-68
2023/02/05 12:35:21;;;;;;;13.10;5.90;;;8.40;99.90;;;;;;5068875;28;20208;-68
2023/02/05 12:37:56;;;;;;;10.23;5.53;;;8.20;99.90;;;;;;5070506;28;20240;-64
2023/02/05 12:40:36;;;;;;;11.47;6.10;;;8.30;99.90;;;;;;5071563;28;20232;-65
2023/02/05 12:43:11;;;;;;;9.70;5.70;;;8.40;99.90;;;;;;5070945;28;20622;-65
2023/02/05 12:45:48;;;;;;;11.07;6.13;;;8.40;99.90;;;;;;5070803;28;20711;-65
2023/02/05 12:48:31;;;;;;;12.33;6.80;;;8.50;99.90;;;;;;5071244;28;20204;-65
2023/02/05 12:51:29;;;;;;;13.47;6.73;;;8.30;99.90;;;;;;5071577;28;20204;-64
2023/02/05 12:54:09;;;;;;;9.40;5.47;;;8.30;99.90;;;;;;5050610;28;20232;-65
2023/02/05 12:57:00;;;;;;;7.87;4.70;;;8.30;99.90;;;;;;5071080;28;20908;-64
2023/02/05 12:59:36;;;;;;;9.93;5.20;;;8.20;99.90;;;;;;5071223;28;20495;-64
2023/02/05 13:02:11;;;;;;;7.53;4.20;;;8.10;99.90;;;;;;5071131;28;20692;-66
2023/02/05 13:04:42;;;;;;;8.90;3.63;;;7.80;99.90;;;;;;5071429;28;20219;-64
2023/02/05 13:07:18;;;;;;;8.03;4.33;;;7.50;99.90;;;;;;5071765;28;20201;-65
2023/02/05 13:09:49;;;;;;;6.90;4.20;;;7.30;99.90;;;;;;5071442;28;20691;-64
2023/02/05 13:12:22;;;;;;;6.50;3.73;;;7.40;99.90;;;;;;5071260;28;20236;-65
2023/02/05 13:14:57;;;;;;;5.77;3.90;;;7.30;99.90;;;;;;5070688;28;20657;-64